createdAt,value
2019-03-26T00:00:09.311Z,4.20
2019-03-26T00:02:37.750Z,4.10
2019-03-26T00:05:06.639Z,4.20
2019-03-26T00:07:35.115Z,4.10
2019-03-26T00:10:04.316Z,4.00
2019-03-26T00:12:32.836Z,4.00
2019-03-26T00:15:01.331Z,4.00
2019-03-26T00:17:29.767Z,4.00
2019-03-26T00:19:58.211Z,4.00
2019-03-26T00:22:26.673Z,3.90
2019-03-26T00:24:55.127Z,3.80
2019-03-26T00:27:23.567Z,3.80
2019-03-26T00:29:52.111Z,3.90
2019-03-26T00:32:23.427Z,3.70
2019-03-26T00:34:50.732Z,3.70
2019-03-26T00:37:19.283Z,3.70
2019-03-26T00:39:47.720Z,3.80
2019-03-26T00:42:16.260Z,3.80
2019-03-26T00:44:44.735Z,3.80
2019-03-26T00:47:13.244Z,3.80
2019-03-26T00:49:41.683Z,3.80
2019-03-26T00:52:10.148Z,3.70
2019-03-26T00:54:38.761Z,3.80
2019-03-26T00:57:07.294Z,3.70
2019-03-26T00:59:35.751Z,3.60
2019-03-26T01:02:05.109Z,3.60
2019-03-26T01:04:33.626Z,3.60
2019-03-26T01:07:02.094Z,3.60
2019-03-26T01:09:30.524Z,3.60
2019-03-26T01:11:58.968Z,3.50
2019-03-26T01:14:27.453Z,3.40
2019-03-26T01:16:55.966Z,3.30
2019-03-26T01:19:24.409Z,3.40
2019-03-26T01:21:52.882Z,3.50
2019-03-26T01:24:21.391Z,3.50
2019-03-26T01:26:49.885Z,3.50
2019-03-26T01:29:18.337Z,3.50
2019-03-26T01:31:46.776Z,3.50
2019-03-26T01:34:15.219Z,3.50
2019-03-26T01:36:43.706Z,3.40
2019-03-26T01:39:12.140Z,3.40
2019-03-26T01:41:40.587Z,3.40
2019-03-26T01:44:09.058Z,3.40
2019-03-26T01:46:37.495Z,3.40
2019-03-26T01:49:05.935Z,3.30
2019-03-26T01:51:34.413Z,3.30
2019-03-26T01:54:02.853Z,3.30
2019-03-26T01:56:31.301Z,3.30
2019-03-26T01:58:59.782Z,3.30
2019-03-26T02:01:28.223Z,3.30
2019-03-26T02:03:56.681Z,3.20
2019-03-26T02:06:25.170Z,3.30
2019-03-26T02:08:53.619Z,3.30
2019-03-26T02:11:22.054Z,3.10
2019-03-26T02:13:50.530Z,3.20
2019-03-26T02:16:19.016Z,3.20
2019-03-26T02:18:47.459Z,3.10
2019-03-26T02:21:15.999Z,3.10
2019-03-26T02:23:44.439Z,3.00
2019-03-26T02:26:12.889Z,3.00
2019-03-26T02:28:41.352Z,2.90
2019-03-26T02:31:09.804Z,2.90
2019-03-26T02:33:38.257Z,3.00
2019-03-26T02:36:06.730Z,3.00
2019-03-26T02:38:35.178Z,3.00
2019-03-26T02:41:03.700Z,3.00
2019-03-26T02:43:32.170Z,3.00
2019-03-26T02:46:00.612Z,2.90
2019-03-26T02:48:29.058Z,2.90
2019-03-26T02:50:57.548Z,2.80
2019-03-26T02:53:27.060Z,2.70
2019-03-26T02:55:55.547Z,2.80
2019-03-26T02:58:24.266Z,2.70
2019-03-26T03:00:52.747Z,2.70
2019-03-26T03:03:21.188Z,2.60
2019-03-26T03:05:49.673Z,2.70
2019-03-26T03:08:18.119Z,2.60
2019-03-26T03:10:46.559Z,2.60
2019-03-26T03:13:15.023Z,2.60
2019-03-26T03:15:43.640Z,2.60
2019-03-26T03:18:12.094Z,2.60
2019-03-26T03:20:40.577Z,2.60
2019-03-26T03:23:09.035Z,2.50
2019-03-26T03:25:37.554Z,2.50
2019-03-26T03:28:06.023Z,2.60
2019-03-26T03:30:34.540Z,2.60
2019-03-26T03:33:02.998Z,2.60
2019-03-26T03:35:31.535Z,2.50
2019-03-26T03:37:59.973Z,2.40
2019-03-26T03:40:28.416Z,2.50
2019-03-26T03:42:56.940Z,2.50
2019-03-26T03:45:28.868Z,2.50
2019-03-26T03:47:58.010Z,2.50
2019-03-26T03:50:29.459Z,2.50
2019-03-26T03:53:00.443Z,2.50
2019-03-26T03:55:30.321Z,2.60
2019-03-26T03:58:00.762Z,2.50
2019-03-26T04:00:34.840Z,2.50
2019-03-26T04:03:04.848Z,2.40
2019-03-26T04:05:33.739Z,2.40
2019-03-26T04:08:02.252Z,2.30
2019-03-26T04:10:30.809Z,2.20
2019-03-26T04:12:59.314Z,2.10
2019-03-26T04:15:27.773Z,2.10
2019-03-26T04:17:56.387Z,2.10
2019-03-26T04:20:24.944Z,2.10
2019-03-26T04:22:53.450Z,2.10
2019-03-26T04:25:21.988Z,2.10
2019-03-26T04:27:50.426Z,2.10
2019-03-26T04:30:27.211Z,2.10
2019-03-26T04:32:55.646Z,2.00
2019-03-26T04:35:24.097Z,2.10
2019-03-26T04:37:52.735Z,2.00
2019-03-26T04:40:21.182Z,2.00
2019-03-26T04:42:49.684Z,1.90
2019-03-26T04:45:18.162Z,2.00
2019-03-26T04:47:46.607Z,1.90
2019-03-26T04:50:15.040Z,1.90
2019-03-26T04:52:43.508Z,1.90
2019-03-26T04:55:12.016Z,1.90
2019-03-26T04:57:40.475Z,2.00
2019-03-26T05:00:10.000Z,1.90
2019-03-26T05:02:38.433Z,1.90
2019-03-26T05:05:06.964Z,1.90
2019-03-26T05:07:35.424Z,2.00
2019-03-26T05:10:06.184Z,2.00
2019-03-26T05:12:34.637Z,2.00
2019-03-26T05:15:03.173Z,1.90
2019-03-26T05:17:31.782Z,2.00
2019-03-26T05:20:00.258Z,2.00
2019-03-26T05:22:28.791Z,1.90
2019-03-26T05:24:57.268Z,1.90
2019-03-26T05:27:25.720Z,2.00
2019-03-26T05:29:54.184Z,2.10
2019-03-26T05:32:22.619Z,2.10
2019-03-26T05:34:51.060Z,2.10
2019-03-26T05:37:19.540Z,2.10
2019-03-26T05:39:47.990Z,2.00
2019-03-26T05:42:16.432Z,2.00
2019-03-26T05:44:44.898Z,2.10
2019-03-26T05:47:13.430Z,2.10
2019-03-26T05:49:41.884Z,2.20
2019-03-26T05:52:10.440Z,2.20
2019-03-26T05:54:38.883Z,2.40
2019-03-26T05:57:07.327Z,2.50
2019-03-26T05:59:55.155Z,2.50
2019-03-26T06:02:23.600Z,2.60
2019-03-26T06:04:52.041Z,2.70
2019-03-26T06:07:20.507Z,2.80
2019-03-26T06:09:48.980Z,2.90
2019-03-26T06:12:17.543Z,3.00
2019-03-26T06:14:46.012Z,3.10
2019-03-26T06:17:14.443Z,3.20
2019-03-26T06:19:42.899Z,3.30
2019-03-26T06:22:11.384Z,3.30
2019-03-26T06:24:39.832Z,3.30
2019-03-26T06:27:08.272Z,3.30
2019-03-26T06:29:36.766Z,3.40
2019-03-26T06:32:05.209Z,3.50
2019-03-26T06:34:33.648Z,3.50
2019-03-26T06:37:02.214Z,3.50
2019-03-26T06:39:30.663Z,3.50
2019-03-26T06:41:59.104Z,3.60
2019-03-26T06:44:27.663Z,3.70
2019-03-26T06:46:56.214Z,3.70
2019-03-26T06:49:24.660Z,3.80
2019-03-26T06:51:53.133Z,3.80
2019-03-26T06:54:21.572Z,3.90
2019-03-26T06:56:50.013Z,4.00
2019-03-26T06:59:18.489Z,4.10
2019-03-26T07:01:47.200Z,4.20
2019-03-26T07:04:15.711Z,4.30
2019-03-26T07:06:44.284Z,4.40
2019-03-26T07:09:12.728Z,4.40
2019-03-26T07:11:41.168Z,4.50
2019-03-26T07:14:09.642Z,4.60
2019-03-26T07:16:38.224Z,4.70
2019-03-26T07:19:06.789Z,4.90
2019-03-26T07:21:35.328Z,5.10
2019-03-26T07:24:04.265Z,5.20
2019-03-26T07:26:32.731Z,5.20
2019-03-26T07:29:01.267Z,5.30
2019-03-26T07:31:29.725Z,5.30
2019-03-26T07:33:58.164Z,5.40
2019-03-26T07:36:26.635Z,5.40
2019-03-26T07:39:14.412Z,5.40
2019-03-26T07:41:43.155Z,5.50
2019-03-26T07:44:11.665Z,5.60
2019-03-26T07:46:40.107Z,5.80
2019-03-26T07:49:08.591Z,5.90
2019-03-26T07:51:37.095Z,5.90
2019-03-26T07:54:05.544Z,6.10
2019-03-26T07:56:34.017Z,6.10
2019-03-26T07:59:02.540Z,6.20
2019-03-26T08:01:30.976Z,6.00
2019-03-26T08:03:59.453Z,6.10
2019-03-26T08:06:27.898Z,6.30
2019-03-26T08:08:56.342Z,6.50
2019-03-26T08:11:24.888Z,6.50
2019-03-26T08:13:53.349Z,6.50
2019-03-26T08:16:21.859Z,6.50
2019-03-26T08:18:50.336Z,6.50
2019-03-26T08:21:18.784Z,6.80
2019-03-26T08:23:47.215Z,6.70
2019-03-26T08:26:15.701Z,6.90
2019-03-26T08:28:44.137Z,7.00
2019-03-26T08:31:12.676Z,7.20
2019-03-26T08:33:41.143Z,7.20
2019-03-26T08:36:09.604Z,7.00
2019-03-26T08:38:38.112Z,7.10
2019-03-26T08:41:06.575Z,7.10
2019-03-26T08:43:35.112Z,7.00
2019-03-26T08:46:03.556Z,7.00
2019-03-26T08:48:32.095Z,7.00
2019-03-26T08:51:00.612Z,7.00
2019-03-26T08:53:29.060Z,7.00
2019-03-26T08:55:57.526Z,7.00
2019-03-26T08:58:25.967Z,7.20
2019-03-26T09:00:54.422Z,7.30
2019-03-26T09:03:22.944Z,7.50
2019-03-26T09:05:51.476Z,7.50
2019-03-26T09:08:25.163Z,7.30
2019-03-26T09:10:51.978Z,7.20
2019-03-26T09:13:20.295Z,7.20
2019-03-26T09:15:48.736Z,7.40
2019-03-26T09:18:17.285Z,7.40
2019-03-26T09:20:45.726Z,7.50
2019-03-26T09:23:14.164Z,7.80
2019-03-26T09:25:42.708Z,7.80
2019-03-26T09:28:11.161Z,7.70
2019-03-26T09:30:39.604Z,7.90
2019-03-26T09:33:08.073Z,7.90
2019-03-26T09:35:36.561Z,8.20
2019-03-26T09:38:05.069Z,8.10
2019-03-26T09:40:33.528Z,8.10
2019-03-26T09:43:02.077Z,7.90
2019-03-26T09:45:30.587Z,7.90
2019-03-26T09:47:59.064Z,8.40
2019-03-26T09:50:32.691Z,8.30
2019-03-26T09:53:01.221Z,8.50
2019-03-26T09:55:29.762Z,8.50
2019-03-26T09:57:58.267Z,8.40
2019-03-26T10:00:26.731Z,8.70
2019-03-26T10:02:55.307Z,9.00
2019-03-26T10:05:43.096Z,9.20
2019-03-26T10:08:11.761Z,9.00
2019-03-26T10:10:40.343Z,9.10
2019-03-26T10:13:08.872Z,9.20
2019-03-26T10:15:37.437Z,9.10
2019-03-26T10:18:05.901Z,9.30
2019-03-26T10:20:34.589Z,9.70
2019-03-26T10:23:03.151Z,10.00
2019-03-26T10:25:31.595Z,10.30
2019-03-26T10:28:00.040Z,10.50
2019-03-26T10:30:39.580Z,10.20
2019-03-26T10:33:17.324Z,10.40
2019-03-26T10:35:45.791Z,10.50
2019-03-26T10:38:14.237Z,10.50
2019-03-26T10:40:42.675Z,10.90
2019-03-26T10:43:18.273Z,11.40
2019-03-26T10:45:46.719Z,11.90
2019-03-26T10:48:15.184Z,11.70
2019-03-26T10:50:43.630Z,12.20
2019-03-26T10:53:12.068Z,12.20
2019-03-26T10:55:40.608Z,12.60
2019-03-26T10:58:09.056Z,13.40
2019-03-26T11:00:37.499Z,14.40
2019-03-26T11:03:06.132Z,14.40
2019-03-26T11:05:34.649Z,13.70
2019-03-26T11:08:03.806Z,13.40
2019-03-26T11:10:32.332Z,13.10
2019-03-26T11:13:00.903Z,13.50
2019-03-26T11:15:29.432Z,13.30
2019-03-26T11:17:57.976Z,13.80
2019-03-26T11:20:26.419Z,14.00
2019-03-26T11:22:54.867Z,14.70
2019-03-26T11:25:40.963Z,14.60
2019-03-26T11:28:09.552Z,14.00
2019-03-26T11:30:38.026Z,13.80
2019-03-26T11:33:06.549Z,14.40
2019-03-26T11:35:35.060Z,14.50
2019-03-26T11:38:03.623Z,15.20
2019-03-26T11:40:32.203Z,14.80
2019-03-26T11:43:00.649Z,14.20
2019-03-26T11:45:29.197Z,13.80
2019-03-26T11:47:57.649Z,14.10
2019-03-26T11:50:26.157Z,15.10
2019-03-26T11:52:54.638Z,14.70
2019-03-26T11:55:23.077Z,14.40
2019-03-26T11:57:51.515Z,15.30
2019-03-26T12:00:22.075Z,14.50
2019-03-26T12:02:50.551Z,13.90
2019-03-26T12:05:19.066Z,13.60
2019-03-26T12:07:47.537Z,13.40
2019-03-26T12:10:16.320Z,12.60
2019-03-26T12:12:44.771Z,12.60
2019-03-26T12:15:13.778Z,13.00
2019-03-26T12:17:42.224Z,13.20
2019-03-26T12:20:11.015Z,12.80
2019-03-26T12:22:39.488Z,12.60
2019-03-26T12:25:08.260Z,12.60
2019-03-26T12:27:37.064Z,13.00
2019-03-26T12:30:07.848Z,12.70
2019-03-26T12:32:36.367Z,12.60
2019-03-26T12:35:27.497Z,12.60
2019-03-26T12:37:55.152Z,13.20
2019-03-26T12:40:23.595Z,13.50
2019-03-26T12:42:52.110Z,13.30
2019-03-26T12:45:20.628Z,13.00
2019-03-26T12:47:49.072Z,12.80
2019-03-26T12:50:17.759Z,13.00
2019-03-26T12:52:46.208Z,13.10
2019-03-26T12:55:14.673Z,13.10
2019-03-26T12:57:43.149Z,13.00
2019-03-26T13:00:12.084Z,12.70
2019-03-26T13:02:40.532Z,12.50
2019-03-26T13:05:09.365Z,12.50
2019-03-26T13:07:37.812Z,12.40
2019-03-26T13:10:13.459Z,12.50
2019-03-26T13:12:37.859Z,12.50
2019-03-26T13:15:28.311Z,12.70
2019-03-26T13:17:56.788Z,12.50
2019-03-26T13:20:25.231Z,12.70
2019-03-26T13:22:53.679Z,12.80
2019-03-26T13:25:22.160Z,12.80
2019-03-26T13:27:50.608Z,12.70
2019-03-26T13:30:19.587Z,12.80
2019-03-26T13:32:48.198Z,12.90
2019-03-26T13:35:18.179Z,13.00
2019-03-26T13:37:46.617Z,12.90
2019-03-26T13:40:26.596Z,12.80
2019-03-26T13:42:45.606Z,13.00
2019-03-26T13:45:14.496Z,12.80
2019-03-26T13:47:43.052Z,13.00
2019-03-26T13:50:32.409Z,13.00
2019-03-26T13:53:01.680Z,12.80
2019-03-26T13:55:30.121Z,12.70
2019-03-26T13:57:58.568Z,12.60
2019-03-26T14:00:38.308Z,12.70
2019-03-26T14:03:06.989Z,12.80
2019-03-26T14:05:35.429Z,12.80
2019-03-26T14:08:24.760Z,12.90
2019-03-26T14:10:53.199Z,13.00
2019-03-26T14:13:21.641Z,12.90
2019-03-26T14:15:50.180Z,13.10
2019-03-26T14:18:18.630Z,13.10
2019-03-26T14:20:47.135Z,13.20
2019-03-26T14:23:15.608Z,12.90
2019-03-26T14:25:44.205Z,13.10
2019-03-26T14:28:12.711Z,13.00
2019-03-26T14:30:42.929Z,13.20
2019-03-26T14:33:11.808Z,13.40
2019-03-26T14:35:40.333Z,13.00
2019-03-26T14:38:08.950Z,12.90
2019-03-26T14:40:37.560Z,12.60
2019-03-26T14:43:07.239Z,12.90
2019-03-26T14:45:35.844Z,12.70
2019-03-26T14:48:04.460Z,12.80
2019-03-26T14:50:32.904Z,13.00
2019-03-26T14:53:01.385Z,13.10
2019-03-26T14:55:30.600Z,13.20
2019-03-26T14:57:59.127Z,13.00
2019-03-26T15:00:27.983Z,12.90
2019-03-26T15:02:56.564Z,12.90
2019-03-26T15:05:25.030Z,12.80
2019-03-26T15:07:53.510Z,12.80
2019-03-26T15:10:23.622Z,12.70
2019-03-26T15:12:52.303Z,12.90
2019-03-26T15:15:20.765Z,12.80
2019-03-26T15:17:49.233Z,12.80
2019-03-26T15:20:18.001Z,12.90
2019-03-26T15:22:46.504Z,12.80
2019-03-26T15:25:14.967Z,12.80
2019-03-26T15:27:43.595Z,12.70
2019-03-26T15:30:12.789Z,12.70
2019-03-26T15:32:41.231Z,12.70
2019-03-26T15:35:09.823Z,12.90
2019-03-26T15:37:38.283Z,13.10
2019-03-26T15:40:08.680Z,14.10
2019-03-26T15:42:37.194Z,14.70
2019-03-26T15:45:07.299Z,14.40
2019-03-26T15:47:35.819Z,13.80
2019-03-26T15:50:05.507Z,13.50
2019-03-26T15:52:33.976Z,13.10
2019-03-26T15:55:21.770Z,15.10
2019-03-26T15:57:50.308Z,16.60
2019-03-26T16:00:21.836Z,16.10
2019-03-26T16:02:50.292Z,16.80
2019-03-26T16:05:18.840Z,15.50
2019-03-26T16:07:47.280Z,14.20
2019-03-26T16:10:15.867Z,14.00
2019-03-26T16:12:44.358Z,15.10
2019-03-26T16:15:12.936Z,15.70
2019-03-26T16:17:41.454Z,15.10
2019-03-26T16:20:10.268Z,14.20
2019-03-26T16:22:38.792Z,13.90
2019-03-26T16:25:08.004Z,13.70
2019-03-26T16:27:36.642Z,13.00
2019-03-26T16:30:30.755Z,12.90
2019-03-26T16:32:59.059Z,12.90
2019-03-26T16:35:27.677Z,12.60
2019-03-26T16:37:56.195Z,12.50
2019-03-26T16:40:24.713Z,12.50
2019-03-26T16:42:53.172Z,12.50
2019-03-26T16:45:21.690Z,12.50
2019-03-26T16:47:50.229Z,12.50
2019-03-26T16:50:18.970Z,12.80
2019-03-26T16:52:47.495Z,12.80
2019-03-26T16:55:18.978Z,12.50
2019-03-26T16:57:47.444Z,12.50
2019-03-26T17:00:32.183Z,12.40
2019-03-26T17:03:01.164Z,12.50
2019-03-26T17:05:29.680Z,12.40
2019-03-26T17:07:58.372Z,12.40
2019-03-26T17:10:26.812Z,12.30
2019-03-26T17:12:55.264Z,12.10
2019-03-26T17:15:23.744Z,12.10
2019-03-26T17:17:52.231Z,12.10
2019-03-26T17:20:23.821Z,12.00
2019-03-26T17:22:50.952Z,11.90
2019-03-26T17:25:19.401Z,11.80
2019-03-26T17:27:47.903Z,11.70
2019-03-26T17:30:16.616Z,11.60
2019-03-26T17:32:45.057Z,11.60
2019-03-26T17:35:13.569Z,11.60
2019-03-26T17:37:42.039Z,11.60
2019-03-26T17:40:10.701Z,11.50
2019-03-26T17:42:39.224Z,11.40
2019-03-26T17:45:08.020Z,11.40
2019-03-26T17:47:36.842Z,11.30
2019-03-26T17:50:07.158Z,11.10
2019-03-26T17:52:35.826Z,11.10
2019-03-26T17:55:06.676Z,11.10
2019-03-26T17:57:35.202Z,11.00
2019-03-26T18:00:04.707Z,10.90
2019-03-26T18:02:33.217Z,10.90
2019-03-26T18:05:01.858Z,10.80
2019-03-26T18:07:30.588Z,10.70
2019-03-26T18:13:41.195Z,10.40
2019-03-26T18:16:15.703Z,10.40
2019-03-26T18:18:44.289Z,10.40
2019-03-26T18:21:12.773Z,10.20
2019-03-26T18:23:44.395Z,10.10
2019-03-26T18:26:12.977Z,10.00
2019-03-26T18:28:41.461Z,9.80
2019-03-26T18:31:09.986Z,9.70
2019-03-26T18:33:38.431Z,9.60
2019-03-26T18:36:07.114Z,9.60
2019-03-26T18:38:35.674Z,9.60
2019-03-26T18:41:04.200Z,9.50
2019-03-26T18:43:32.685Z,9.40
2019-03-26T18:46:20.487Z,9.30
2019-03-26T18:48:49.041Z,9.30
2019-03-26T18:51:17.544Z,9.10
2019-03-26T18:53:46.136Z,9.10
2019-03-26T18:56:14.636Z,9.00
2019-03-26T18:58:43.151Z,9.00
2019-03-26T19:01:11.679Z,8.90
2019-03-26T19:03:40.240Z,9.00
2019-03-26T19:06:08.681Z,8.90
2019-03-26T19:08:39.838Z,8.90
2019-03-26T19:11:07.385Z,8.90
2019-03-26T19:13:35.827Z,8.80
2019-03-26T19:16:04.280Z,8.70
2019-03-26T19:18:32.767Z,8.70
2019-03-26T19:21:02.652Z,8.70
2019-03-26T19:23:31.343Z,8.80
2019-03-26T19:25:59.901Z,8.80
2019-03-26T19:28:28.518Z,8.70
2019-03-26T19:31:00.184Z,8.70
2019-03-26T19:33:28.763Z,8.70
2019-03-26T19:35:58.962Z,8.70
2019-03-26T19:38:27.405Z,8.70
2019-03-26T19:40:57.605Z,8.60
2019-03-26T19:43:26.068Z,8.60
2019-03-26T19:45:56.468Z,8.50
2019-03-26T19:48:26.699Z,8.50
2019-03-26T19:50:57.211Z,8.40
2019-03-26T19:53:25.464Z,8.30
2019-03-26T19:55:54.060Z,8.30
2019-03-26T19:58:22.565Z,8.30
2019-03-26T20:00:51.323Z,8.20
2019-03-26T20:03:20.061Z,8.20
2019-03-26T20:06:12.509Z,8.20
2019-03-26T20:08:29.083Z,8.20
2019-03-26T20:11:16.981Z,8.10
2019-03-26T20:13:48.110Z,8.10
2019-03-26T20:16:19.629Z,8.10
2019-03-26T20:18:47.857Z,8.00
2019-03-26T20:21:16.595Z,7.90
2019-03-26T20:23:45.180Z,7.90
2019-03-26T20:26:13.769Z,7.90
2019-03-26T20:28:42.260Z,7.80
2019-03-26T20:31:10.802Z,7.70
2019-03-26T20:33:42.711Z,7.70
2019-03-26T20:36:11.456Z,7.60
2019-03-26T20:38:40.003Z,7.50
2019-03-26T20:41:09.789Z,7.50
2019-03-26T20:43:52.578Z,7.50
2019-03-26T20:46:21.257Z,7.50
2019-03-26T20:48:49.722Z,7.50
2019-03-26T20:51:34.155Z,7.50
2019-03-26T20:54:02.696Z,7.50
2019-03-26T20:56:31.695Z,7.40
2019-03-26T20:59:00.605Z,7.30
2019-03-26T21:01:29.057Z,7.30
2019-03-26T21:03:57.568Z,7.30
2019-03-26T21:06:26.058Z,7.30
2019-03-26T21:08:54.663Z,7.40
2019-03-26T21:11:24.743Z,7.40
2019-03-26T21:14:05.502Z,7.50
2019-03-26T21:16:34.031Z,7.50
2019-03-26T21:19:02.545Z,7.40
2019-03-26T21:21:31.035Z,7.50
2019-03-26T21:23:59.484Z,7.30
2019-03-26T21:27:06.887Z,7.40
2019-03-26T21:29:35.370Z,7.50
2019-03-26T21:32:04.006Z,7.50
2019-03-26T21:34:32.577Z,7.50
2019-03-26T21:37:01.275Z,7.50
2019-03-26T21:39:29.733Z,7.30
2019-03-26T21:41:58.229Z,7.30
2019-03-26T21:44:26.816Z,7.30
2019-03-26T21:46:55.324Z,7.20
2019-03-26T21:49:23.927Z,7.10
2019-03-26T21:51:52.371Z,7.00
2019-03-26T21:54:20.833Z,7.10
2019-03-26T21:56:49.409Z,7.20
2019-03-26T21:59:17.928Z,7.20
2019-03-26T22:01:46.516Z,7.20
2019-03-26T22:04:15.022Z,7.20
2019-03-26T22:06:52.252Z,7.30
2019-03-26T22:09:20.732Z,7.30
2019-03-26T22:11:50.356Z,7.40
2019-03-26T22:14:19.147Z,7.40
2019-03-26T22:16:47.749Z,7.40
2019-03-26T22:19:27.980Z,7.40
2019-03-26T22:21:46.668Z,7.40
2019-03-26T22:24:17.135Z,7.50
2019-03-26T22:26:45.346Z,7.50
2019-03-26T22:29:13.958Z,7.50
2019-03-26T22:31:42.437Z,7.50
2019-03-26T22:34:10.905Z,7.60
2019-03-26T22:36:39.368Z,7.60
2019-03-26T22:39:08.291Z,7.60
2019-03-26T22:41:36.799Z,7.60
2019-03-26T22:44:05.432Z,7.50
2019-03-26T22:46:33.994Z,7.60
2019-03-26T22:49:02.612Z,7.60
2019-03-26T22:51:31.112Z,7.60
2019-03-26T22:53:59.731Z,7.60
2019-03-26T22:56:28.256Z,7.60
2019-03-26T22:59:16.059Z,7.70
2019-03-26T23:01:50.428Z,7.70
2019-03-26T23:04:20.120Z,7.60
2019-03-26T23:06:48.908Z,7.60
2019-03-26T23:09:17.369Z,7.70
2019-03-26T23:11:45.930Z,7.70
2019-03-26T23:14:14.587Z,7.70
2019-03-26T23:16:43.100Z,7.70
2019-03-26T23:19:11.544Z,7.70
2019-03-26T23:21:40.103Z,7.70
2019-03-26T23:24:08.544Z,7.60
2019-03-26T23:26:36.993Z,7.60
2019-03-26T23:29:07.997Z,7.60
2019-03-26T23:31:36.160Z,7.50
2019-03-26T23:34:04.604Z,7.50
2019-03-26T23:36:33.084Z,7.50
2019-03-26T23:39:01.528Z,7.50
2019-03-26T23:41:29.975Z,7.50
2019-03-26T23:43:58.492Z,7.60
2019-03-26T23:46:26.935Z,7.60
2019-03-26T23:48:55.391Z,7.70
2019-03-26T23:51:23.932Z,7.70
2019-03-26T23:53:52.380Z,7.60
2019-03-26T23:56:20.825Z,7.60
2019-03-26T23:58:49.359Z,7.50
